sensor_id;sensor_type;location;lat;lon;timestamp;P1;durP1;ratioP1;P2;durP2;ratioP2
14358;SDS011;7263;49.418;11.064;2023-02-28T00:01:28;3.30;;;2.30;;
14358;SDS011;7263;49.418;11.064;2023-02-28T00:03:56;3.83;;;1.97;;
14358;SDS011;7263;49.418;11.064;2023-02-28T00:06:24;3.93;;;2.30;;
14358;SDS011;7263;49.418;11.064;2023-02-28T00:08:51;3.27;;;2.50;;
14358;SDS011;7263;49.418;11.064;2023-02-28T00:11:18;3.00;;;2.27;;
14358;SDS011;7263;49.418;11.064;2023-02-28T00:13:45;2.20;;;1.97;;
14358;SDS011;7263;49.418;11.064;2023-02-28T00:16:18;3.23;;;2.43;;
14358;SDS011;7263;49.418;11.064;2023-02-28T00:18:46;2.50;;;2.17;;
14358;SDS011;7263;49.418;11.064;2023-02-28T00:21:13;2.37;;;2.07;;
14358;SDS011;7263;49.418;11.064;2023-02-28T00:23:42;2.50;;;2.20;;
14358;SDS011;7263;49.418;11.064;2023-02-28T00:26:09;2.97;;;2.10;;
14358;SDS011;7263;49.418;11.064;2023-02-28T00:28:36;3.43;;;2.20;;
14358;SDS011;7263;49.418;11.064;2023-02-28T00:31:03;3.00;;;2.30;;
14358;SDS011;7263;49.418;11.064;2023-02-28T00:33:30;2.87;;;2.20;;
14358;SDS011;7263;49.418;11.064;2023-02-28T00:36:04;2.83;;;2.10;;
14358;SDS011;7263;49.418;11.064;2023-02-28T00:38:32;2.10;;;1.90;;
14358;SDS011;7263;49.418;11.064;2023-02-28T00:41:00;3.27;;;2.40;;
14358;SDS011;7263;49.418;11.064;2023-02-28T00:43:30;2.70;;;2.20;;
14358;SDS011;7263;49.418;11.064;2023-02-28T00:45:57;3.57;;;2.53;;
14358;SDS011;7263;49.418;11.064;2023-02-28T00:48:24;3.77;;;2.30;;
14358;SDS011;7263;49.418;11.064;2023-02-28T00:50:51;4.50;;;2.77;;
14358;SDS011;7263;49.418;11.064;2023-02-28T00:53:18;4.37;;;2.33;;
14358;SDS011;7263;49.418;11.064;2023-02-28T00:55:44;3.00;;;2.50;;
14358;SDS011;7263;49.418;11.064;2023-02-28T00:58:13;3.43;;;2.73;;
14358;SDS011;7263;49.418;11.064;2023-02-28T01:00:39;2.70;;;2.30;;
14358;SDS011;7263;49.418;11.064;2023-02-28T01:03:06;2.70;;;2.50;;
14358;SDS011;7263;49.418;11.064;2023-02-28T01:05:33;3.50;;;2.70;;
14358;SDS011;7263;49.418;11.064;2023-02-28T01:08:00;4.00;;;2.80;;
14358;SDS011;7263;49.418;11.064;2023-02-28T01:10:27;4.03;;;2.70;;
14358;SDS011;7263;49.418;11.064;2023-02-28T01:12:56;3.40;;;2.80;;
14358;SDS011;7263;49.418;11.064;2023-02-28T01:15:24;3.87;;;2.70;;
14358;SDS011;7263;49.418;11.064;2023-02-28T01:17:51;3.03;;;2.63;;
14358;SDS011;7263;49.418;11.064;2023-02-28T01:20:18;4.07;;;2.90;;
14358;SDS011;7263;49.418;11.064;2023-02-28T01:22:45;3.60;;;2.77;;
14358;SDS011;7263;49.418;11.064;2023-02-28T01:25:12;3.70;;;2.90;;
14358;SDS011;7263;49.418;11.064;2023-02-28T01:27:39;3.57;;;2.80;;
14358;SDS011;7263;49.418;11.064;2023-02-28T01:30:07;3.20;;;2.70;;
14358;SDS011;7263;49.418;11.064;2023-02-28T01:32:36;3.43;;;2.57;;
14358;SDS011;7263;49.418;11.064;2023-02-28T01:35:03;2.53;;;2.33;;
14358;SDS011;7263;49.418;11.064;2023-02-28T01:37:30;3.50;;;3.00;;
14358;SDS011;7263;49.418;11.064;2023-02-28T01:39:57;3.00;;;2.70;;
14358;SDS011;7263;49.418;11.064;2023-02-28T01:42:23;3.23;;;2.90;;
14358;SDS011;7263;49.418;11.064;2023-02-28T01:44:58;4.43;;;2.77;;
14358;SDS011;7263;49.418;11.064;2023-02-28T01:47:42;3.33;;;2.77;;
14358;SDS011;7263;49.418;11.064;2023-02-28T01:50:12;2.60;;;2.40;;
14358;SDS011;7263;49.418;11.064;2023-02-28T01:52:42;3.83;;;2.70;;
14358;SDS011;7263;49.418;11.064;2023-02-28T01:55:10;2.73;;;2.50;;
14358;SDS011;7263;49.418;11.064;2023-02-28T01:57:40;3.67;;;2.90;;
14358;SDS011;7263;49.418;11.064;2023-02-28T02:00:09;3.37;;;2.60;;
14358;SDS011;7263;49.418;11.064;2023-02-28T02:02:39;3.37;;;2.70;;
14358;SDS011;7263;49.418;11.064;2023-02-28T02:05:11;3.30;;;2.80;;
14358;SDS011;7263;49.418;11.064;2023-02-28T02:07:41;3.20;;;2.80;;
14358;SDS011;7263;49.418;11.064;2023-02-28T02:10:11;2.93;;;2.60;;
14358;SDS011;7263;49.418;11.064;2023-02-28T02:12:48;2.77;;;2.40;;
14358;SDS011;7263;49.418;11.064;2023-02-28T02:15:24;2.90;;;2.50;;
14358;SDS011;7263;49.418;11.064;2023-02-28T02:18:00;3.57;;;3.00;;
14358;SDS011;7263;49.418;11.064;2023-02-28T02:20:41;2.90;;;2.63;;
14358;SDS011;7263;49.418;11.064;2023-02-28T02:23:27;3.53;;;2.80;;
14358;SDS011;7263;49.418;11.064;2023-02-28T02:29:47;4.60;;;3.23;;
14358;SDS011;7263;49.418;11.064;2023-02-28T02:35:49;3.10;;;2.80;;
14358;SDS011;7263;49.418;11.064;2023-02-28T02:38:22;3.47;;;2.77;;
14358;SDS011;7263;49.418;11.064;2023-02-28T02:40:58;17.13;;;14.37;;
14358;SDS011;7263;49.418;11.064;2023-02-28T02:43:35;4.80;;;3.13;;
14358;SDS011;7263;49.418;11.064;2023-02-28T02:46:08;3.57;;;3.10;;
14358;SDS011;7263;49.418;11.064;2023-02-28T02:48:38;3.10;;;2.80;;
14358;SDS011;7263;49.418;11.064;2023-02-28T02:51:10;3.20;;;2.80;;
14358;SDS011;7263;49.418;11.064;2023-02-28T02:53:41;3.20;;;2.70;;
14358;SDS011;7263;49.418;11.064;2023-02-28T02:56:11;3.10;;;2.80;;
14358;SDS011;7263;49.418;11.064;2023-02-28T02:58:40;3.47;;;2.80;;
14358;SDS011;7263;49.418;11.064;2023-02-28T03:01:10;3.90;;;2.90;;
14358;SDS011;7263;49.418;11.064;2023-02-28T03:03:40;3.80;;;3.40;;
14358;SDS011;7263;49.418;11.064;2023-02-28T03:06:09;3.93;;;3.13;;
14358;SDS011;7263;49.418;11.064;2023-02-28T03:08:37;3.90;;;2.73;;
14358;SDS011;7263;49.418;11.064;2023-02-28T03:11:04;4.13;;;3.20;;
14358;SDS011;7263;49.418;11.064;2023-02-28T03:13:50;3.73;;;3.10;;
14358;SDS011;7263;49.418;11.064;2023-02-28T03:16:35;3.87;;;3.27;;
14358;SDS011;7263;49.418;11.064;2023-02-28T03:19:12;3.40;;;3.07;;
14358;SDS011;7263;49.418;11.064;2023-02-28T03:21:54;3.70;;;3.00;;
14358;SDS011;7263;49.418;11.064;2023-02-28T03:24:30;3.60;;;3.20;;
14358;SDS011;7263;49.418;11.064;2023-02-28T03:27:06;3.77;;;3.37;;
14358;SDS011;7263;49.418;11.064;2023-02-28T03:29:38;3.90;;;3.27;;
14358;SDS011;7263;49.418;11.064;2023-02-28T03:32:11;3.83;;;3.30;;
14358;SDS011;7263;49.418;11.064;2023-02-28T03:34:46;3.80;;;3.23;;
14358;SDS011;7263;49.418;11.064;2023-02-28T03:37:22;3.83;;;3.43;;
14358;SDS011;7263;49.418;11.064;2023-02-28T03:39:54;4.23;;;3.30;;
14358;SDS011;7263;49.418;11.064;2023-02-28T03:42:25;4.27;;;3.57;;
14358;SDS011;7263;49.418;11.064;2023-02-28T03:44:56;4.43;;;3.63;;
14358;SDS011;7263;49.418;11.064;2023-02-28T03:47:27;3.70;;;3.10;;
14358;SDS011;7263;49.418;11.064;2023-02-28T03:49:59;3.97;;;3.33;;
14358;SDS011;7263;49.418;11.064;2023-02-28T03:52:34;3.80;;;3.40;;
14358;SDS011;7263;49.418;11.064;2023-02-28T03:55:05;4.73;;;3.57;;
14358;SDS011;7263;49.418;11.064;2023-02-28T03:57:38;4.13;;;3.73;;
14358;SDS011;7263;49.418;11.064;2023-02-28T04:00:16;5.23;;;3.73;;
14358;SDS011;7263;49.418;11.064;2023-02-28T04:02:46;3.93;;;3.53;;
14358;SDS011;7263;49.418;11.064;2023-02-28T04:05:17;5.20;;;3.80;;
14358;SDS011;7263;49.418;11.064;2023-02-28T04:07:45;4.40;;;3.80;;
14358;SDS011;7263;49.418;11.064;2023-02-28T04:10:13;4.33;;;3.40;;
14358;SDS011;7263;49.418;11.064;2023-02-28T04:12:42;5.33;;;4.07;;
14358;SDS011;7263;49.418;11.064;2023-02-28T04:15:08;4.20;;;3.63;;
14358;SDS011;7263;49.418;11.064;2023-02-28T04:17:36;4.20;;;3.80;;
14358;SDS011;7263;49.418;11.064;2023-02-28T04:20:03;4.53;;;3.77;;
14358;SDS011;7263;49.418;11.064;2023-02-28T04:22:34;4.97;;;3.90;;
14358;SDS011;7263;49.418;11.064;2023-02-28T04:25:04;4.63;;;3.97;;
14358;SDS011;7263;49.418;11.064;2023-02-28T04:27:31;5.83;;;4.23;;
14358;SDS011;7263;49.418;11.064;2023-02-28T04:29:58;5.80;;;4.17;;
14358;SDS011;7263;49.418;11.064;2023-02-28T04:32:25;5.63;;;4.40;;
14358;SDS011;7263;49.418;11.064;2023-02-28T04:34:52;5.27;;;4.03;;
14358;SDS011;7263;49.418;11.064;2023-02-28T04:37:18;5.40;;;4.13;;
14358;SDS011;7263;49.418;11.064;2023-02-28T04:39:45;4.57;;;4.17;;
14358;SDS011;7263;49.418;11.064;2023-02-28T04:42:13;4.57;;;4.17;;
14358;SDS011;7263;49.418;11.064;2023-02-28T04:44:41;4.23;;;3.83;;
14358;SDS011;7263;49.418;11.064;2023-02-28T04:47:08;4.77;;;4.37;;
14358;SDS011;7263;49.418;11.064;2023-02-28T04:49:35;4.50;;;4.07;;
14358;SDS011;7263;49.418;11.064;2023-02-28T04:52:01;6.73;;;4.57;;
14358;SDS011;7263;49.418;11.064;2023-02-28T04:54:28;4.50;;;4.10;;
14358;SDS011;7263;49.418;11.064;2023-02-28T04:56:55;4.73;;;4.07;;
14358;SDS011;7263;49.418;11.064;2023-02-28T04:59:23;4.60;;;4.03;;
14358;SDS011;7263;49.418;11.064;2023-02-28T05:01:50;4.70;;;4.30;;
14358;SDS011;7263;49.418;11.064;2023-02-28T05:04:17;4.50;;;4.10;;
14358;SDS011;7263;49.418;11.064;2023-02-28T05:06:44;5.43;;;4.40;;
14358;SDS011;7263;49.418;11.064;2023-02-28T05:09:11;4.60;;;4.10;;
14358;SDS011;7263;49.418;11.064;2023-02-28T05:11:38;4.30;;;3.90;;
14358;SDS011;7263;49.418;11.064;2023-02-28T05:14:06;5.20;;;4.70;;
14358;SDS011;7263;49.418;11.064;2023-02-28T05:16:36;5.07;;;4.57;;
14358;SDS011;7263;49.418;11.064;2023-02-28T05:19:03;6.10;;;4.80;;
14358;SDS011;7263;49.418;11.064;2023-02-28T05:21:30;6.50;;;4.57;;
14358;SDS011;7263;49.418;11.064;2023-02-28T05:23:59;5.23;;;4.00;;
14358;SDS011;7263;49.418;11.064;2023-02-28T05:26:27;5.70;;;4.20;;
14358;SDS011;7263;49.418;11.064;2023-02-28T05:28:55;5.13;;;4.43;;
14358;SDS011;7263;49.418;11.064;2023-02-28T05:31:22;5.33;;;4.50;;
14358;SDS011;7263;49.418;11.064;2023-02-28T05:33:50;5.43;;;4.30;;
14358;SDS011;7263;49.418;11.064;2023-02-28T05:36:17;6.27;;;4.97;;
14358;SDS011;7263;49.418;11.064;2023-02-28T05:38:45;5.73;;;4.57;;
14358;SDS011;7263;49.418;11.064;2023-02-28T05:41:12;4.93;;;4.37;;
14358;SDS011;7263;49.418;11.064;2023-02-28T05:43:39;5.70;;;4.23;;
14358;SDS011;7263;49.418;11.064;2023-02-28T05:46:06;4.70;;;4.30;;
14358;SDS011;7263;49.418;11.064;2023-02-28T05:48:34;4.97;;;4.47;;
14358;SDS011;7263;49.418;11.064;2023-02-28T05:51:04;5.03;;;4.50;;
14358;SDS011;7263;49.418;11.064;2023-02-28T05:53:32;4.93;;;4.20;;
14358;SDS011;7263;49.418;11.064;2023-02-28T05:55:59;4.73;;;4.33;;
14358;SDS011;7263;49.418;11.064;2023-02-28T05:58:26;4.93;;;4.37;;
14358;SDS011;7263;49.418;11.064;2023-02-28T06:00:55;4.70;;;4.20;;
14358;SDS011;7263;49.418;11.064;2023-02-28T06:03:22;5.20;;;4.67;;
14358;SDS011;7263;49.418;11.064;2023-02-28T06:05:49;6.40;;;4.73;;
14358;SDS011;7263;49.418;11.064;2023-02-28T06:08:17;5.23;;;4.53;;
14358;SDS011;7263;49.418;11.064;2023-02-28T06:10:44;5.23;;;4.47;;
14358;SDS011;7263;49.418;11.064;2023-02-28T06:13:11;5.77;;;4.40;;
14358;SDS011;7263;49.418;11.064;2023-02-28T06:15:38;5.93;;;4.57;;
14358;SDS011;7263;49.418;11.064;2023-02-28T06:18:05;4.70;;;4.27;;
14358;SDS011;7263;49.418;11.064;2023-02-28T06:20:32;5.50;;;4.40;;
14358;SDS011;7263;49.418;11.064;2023-02-28T06:23:01;5.73;;;4.63;;
14358;SDS011;7263;49.418;11.064;2023-02-28T06:25:29;6.03;;;4.87;;
14358;SDS011;7263;49.418;11.064;2023-02-28T06:27:56;6.43;;;4.63;;
14358;SDS011;7263;49.418;11.064;2023-02-28T06:30:23;5.63;;;5.03;;
14358;SDS011;7263;49.418;11.064;2023-02-28T06:32:51;5.10;;;4.50;;
14358;SDS011;7263;49.418;11.064;2023-02-28T06:35:19;4.87;;;4.37;;
14358;SDS011;7263;49.418;11.064;2023-02-28T06:37:46;4.93;;;4.43;;
14358;SDS011;7263;49.418;11.064;2023-02-28T06:40:13;5.20;;;4.70;;
14358;SDS011;7263;49.418;11.064;2023-02-28T06:42:41;5.60;;;5.03;;
14358;SDS011;7263;49.418;11.064;2023-02-28T06:45:09;6.80;;;5.10;;
14358;SDS011;7263;49.418;11.064;2023-02-28T06:47:37;6.00;;;4.27;;
14358;SDS011;7263;49.418;11.064;2023-02-28T06:50:05;5.53;;;4.57;;
14358;SDS011;7263;49.418;11.064;2023-02-28T06:52:33;6.73;;;4.60;;
14358;SDS011;7263;49.418;11.064;2023-02-28T06:55:02;5.07;;;4.57;;
14358;SDS011;7263;49.418;11.064;2023-02-28T06:57:30;6.47;;;5.07;;
14358;SDS011;7263;49.418;11.064;2023-02-28T07:00:00;7.20;;;5.00;;
14358;SDS011;7263;49.418;11.064;2023-02-28T07:02:30;5.33;;;4.83;;
14358;SDS011;7263;49.418;11.064;2023-02-28T07:04:57;5.87;;;4.53;;
14358;SDS011;7263;49.418;11.064;2023-02-28T07:07:24;4.43;;;4.03;;
14358;SDS011;7263;49.418;11.064;2023-02-28T07:09:51;6.50;;;4.83;;
14358;SDS011;7263;49.418;11.064;2023-02-28T07:12:17;6.80;;;5.00;;
14358;SDS011;7263;49.418;11.064;2023-02-28T07:14:44;6.80;;;4.97;;
14358;SDS011;7263;49.418;11.064;2023-02-28T07:17:12;7.73;;;5.10;;
14358;SDS011;7263;49.418;11.064;2023-02-28T07:19:39;7.30;;;4.87;;
14358;SDS011;7263;49.418;11.064;2023-02-28T07:22:06;6.50;;;4.90;;
14358;SDS011;7263;49.418;11.064;2023-02-28T07:24:33;5.87;;;4.87;;
14358;SDS011;7263;49.418;11.064;2023-02-28T07:27:00;5.80;;;4.67;;
14358;SDS011;7263;49.418;11.064;2023-02-28T07:29:27;6.03;;;4.87;;
14358;SDS011;7263;49.418;11.064;2023-02-28T07:31:53;6.57;;;4.70;;
14358;SDS011;7263;49.418;11.064;2023-02-28T07:34:23;5.97;;;4.57;;
14358;SDS011;7263;49.418;11.064;2023-02-28T07:36:52;9.17;;;4.87;;
14358;SDS011;7263;49.418;11.064;2023-02-28T07:39:19;6.60;;;4.93;;
14358;SDS011;7263;49.418;11.064;2023-02-28T07:41:46;5.57;;;4.60;;
14358;SDS011;7263;49.418;11.064;2023-02-28T07:44:13;5.83;;;4.77;;
14358;SDS011;7263;49.418;11.064;2023-02-28T07:46:40;7.80;;;5.17;;
14358;SDS011;7263;49.418;11.064;2023-02-28T07:49:07;5.03;;;4.53;;
14358;SDS011;7263;49.418;11.064;2023-02-28T07:51:35;6.97;;;5.00;;
14358;SDS011;7263;49.418;11.064;2023-02-28T07:54:02;5.20;;;4.60;;
14358;SDS011;7263;49.418;11.064;2023-02-28T07:56:29;8.30;;;5.00;;
14358;SDS011;7263;49.418;11.064;2023-02-28T07:58:55;6.17;;;4.50;;
14358;SDS011;7263;49.418;11.064;2023-02-28T08:01:22;6.40;;;4.90;;
14358;SDS011;7263;49.418;11.064;2023-02-28T08:03:49;5.90;;;4.80;;
14358;SDS011;7263;49.418;11.064;2023-02-28T08:06:17;6.40;;;5.30;;
14358;SDS011;7263;49.418;11.064;2023-02-28T08:08:46;5.87;;;4.47;;
14358;SDS011;7263;49.418;11.064;2023-02-28T08:11:14;5.43;;;4.63;;
14358;SDS011;7263;49.418;11.064;2023-02-28T08:13:42;7.73;;;4.40;;
14358;SDS011;7263;49.418;11.064;2023-02-28T08:16:09;6.30;;;5.20;;
14358;SDS011;7263;49.418;11.064;2023-02-28T08:18:36;7.63;;;4.70;;
14358;SDS011;7263;49.418;11.064;2023-02-28T08:21:05;5.20;;;4.70;;
14358;SDS011;7263;49.418;11.064;2023-02-28T08:23:33;5.70;;;5.10;;
14358;SDS011;7263;49.418;11.064;2023-02-28T08:26:01;6.80;;;5.10;;
14358;SDS011;7263;49.418;11.064;2023-02-28T08:28:28;5.83;;;4.70;;
14358;SDS011;7263;49.418;11.064;2023-02-28T08:30:55;5.70;;;5.10;;
14358;SDS011;7263;49.418;11.064;2023-02-28T08:33:22;6.13;;;4.90;;
14358;SDS011;7263;49.418;11.064;2023-02-28T08:35:52;5.33;;;4.57;;
14358;SDS011;7263;49.418;11.064;2023-02-28T08:38:20;5.77;;;5.00;;
14358;SDS011;7263;49.418;11.064;2023-02-28T08:40:47;6.57;;;4.80;;
14358;SDS011;7263;49.418;11.064;2023-02-28T08:43:15;5.30;;;4.80;;
14358;SDS011;7263;49.418;11.064;2023-02-28T08:45:41;7.93;;;4.80;;
14358;SDS011;7263;49.418;11.064;2023-02-28T08:48:08;6.27;;;5.53;;
14358;SDS011;7263;49.418;11.064;2023-02-28T08:50:35;5.13;;;4.63;;
14358;SDS011;7263;49.418;11.064;2023-02-28T08:53:02;5.27;;;4.47;;
14358;SDS011;7263;49.418;11.064;2023-02-28T08:55:28;6.30;;;4.60;;
14358;SDS011;7263;49.418;11.064;2023-02-28T08:57:55;5.30;;;4.80;;
14358;SDS011;7263;49.418;11.064;2023-02-28T09:00:24;5.13;;;4.63;;
14358;SDS011;7263;49.418;11.064;2023-02-28T09:02:51;5.33;;;4.33;;
14358;SDS011;7263;49.418;11.064;2023-02-28T09:05:19;4.53;;;4.10;;
14358;SDS011;7263;49.418;11.064;2023-02-28T09:07:46;8.03;;;5.00;;
14358;SDS011;7263;49.418;11.064;2023-02-28T09:10:13;7.67;;;4.90;;
14358;SDS011;7263;49.418;11.064;2023-02-28T09:12:39;5.73;;;4.87;;
14358;SDS011;7263;49.418;11.064;2023-02-28T09:15:07;5.40;;;4.67;;
14358;SDS011;7263;49.418;11.064;2023-02-28T09:17:35;6.07;;;4.97;;
14358;SDS011;7263;49.418;11.064;2023-02-28T09:20:02;5.63;;;4.80;;
14358;SDS011;7263;49.418;11.064;2023-02-28T09:22:30;6.30;;;4.73;;
14358;SDS011;7263;49.418;11.064;2023-02-28T09:24:57;6.53;;;5.23;;
14358;SDS011;7263;49.418;11.064;2023-02-28T09:27:24;6.43;;;5.07;;
14358;SDS011;7263;49.418;11.064;2023-02-28T09:29:51;6.97;;;5.07;;
14358;SDS011;7263;49.418;11.064;2023-02-28T09:32:17;5.30;;;4.80;;
14358;SDS011;7263;49.418;11.064;2023-02-28T09:34:45;5.13;;;4.63;;
14358;SDS011;7263;49.418;11.064;2023-02-28T09:37:12;5.07;;;4.33;;
14358;SDS011;7263;49.418;11.064;2023-02-28T09:39:39;6.50;;;4.43;;
14358;SDS011;7263;49.418;11.064;2023-02-28T09:42:06;5.63;;;5.03;;
14358;SDS011;7263;49.418;11.064;2023-02-28T09:44:43;6.07;;;4.70;;
14358;SDS011;7263;49.418;11.064;2023-02-28T09:47:13;6.10;;;4.70;;
14358;SDS011;7263;49.418;11.064;2023-02-28T09:49:46;7.47;;;5.17;;
14358;SDS011;7263;49.418;11.064;2023-02-28T09:52:15;6.27;;;4.40;;
14358;SDS011;7263;49.418;11.064;2023-02-28T09:54:44;5.77;;;4.60;;
14358;SDS011;7263;49.418;11.064;2023-02-28T09:57:14;4.93;;;4.43;;
14358;SDS011;7263;49.418;11.064;2023-02-28T09:59:50;5.57;;;4.20;;
14358;SDS011;7263;49.418;11.064;2023-02-28T10:02:33;6.33;;;4.73;;
14358;SDS011;7263;49.418;11.064;2023-02-28T10:05:09;5.00;;;4.43;;
14358;SDS011;7263;49.418;11.064;2023-02-28T10:07:43;6.03;;;5.43;;
14358;SDS011;7263;49.418;11.064;2023-02-28T10:10:24;7.30;;;5.17;;
14358;SDS011;7263;49.418;11.064;2023-02-28T10:12:57;5.30;;;4.20;;
14358;SDS011;7263;49.418;11.064;2023-02-28T10:15:26;7.40;;;4.13;;
14358;SDS011;7263;49.418;11.064;2023-02-28T10:17:57;5.97;;;4.83;;
14358;SDS011;7263;49.418;11.064;2023-02-28T10:20:29;6.30;;;5.10;;
14358;SDS011;7263;49.418;11.064;2023-02-28T10:23:02;5.57;;;4.37;;
14358;SDS011;7263;49.418;11.064;2023-02-28T10:25:36;7.23;;;4.63;;
14358;SDS011;7263;49.418;11.064;2023-02-28T10:28:08;5.87;;;4.63;;
14358;SDS011;7263;49.418;11.064;2023-02-28T10:30:37;6.13;;;4.60;;
14358;SDS011;7263;49.418;11.064;2023-02-28T10:33:08;4.87;;;3.93;;
14358;SDS011;7263;49.418;11.064;2023-02-28T10:35:46;6.60;;;4.37;;
14358;SDS011;7263;49.418;11.064;2023-02-28T10:38:17;6.80;;;4.60;;
14358;SDS011;7263;49.418;11.064;2023-02-28T10:40:45;8.17;;;4.67;;
14358;SDS011;7263;49.418;11.064;2023-02-28T10:43:19;6.07;;;4.30;;
14358;SDS011;7263;49.418;11.064;2023-02-28T10:45:53;4.83;;;4.30;;
14358;SDS011;7263;49.418;11.064;2023-02-28T10:48:27;6.40;;;4.80;;
14358;SDS011;7263;49.418;11.064;2023-02-28T10:51:04;10.03;;;4.60;;
14358;SDS011;7263;49.418;11.064;2023-02-28T10:53:34;6.70;;;4.20;;
14358;SDS011;7263;49.418;11.064;2023-02-28T10:56:05;5.70;;;4.50;;
14358;SDS011;7263;49.418;11.064;2023-02-28T10:58:49;5.90;;;4.53;;
14358;SDS011;7263;49.418;11.064;2023-02-28T11:01:22;5.10;;;4.13;;
14358;SDS011;7263;49.418;11.064;2023-02-28T11:03:51;5.90;;;4.10;;
14358;SDS011;7263;49.418;11.064;2023-02-28T11:06:20;6.00;;;3.70;;
14358;SDS011;7263;49.418;11.064;2023-02-28T11:08:49;6.10;;;4.30;;
14358;SDS011;7263;49.418;11.064;2023-02-28T11:11:18;5.07;;;3.90;;
14358;SDS011;7263;49.418;11.064;2023-02-28T11:13:46;5.80;;;4.37;;
14358;SDS011;7263;49.418;11.064;2023-02-28T11:16:16;5.10;;;4.40;;
14358;SDS011;7263;49.418;11.064;2023-02-28T11:18:46;5.80;;;4.20;;
14358;SDS011;7263;49.418;11.064;2023-02-28T11:21:16;8.13;;;4.63;;
14358;SDS011;7263;49.418;11.064;2023-02-28T11:23:51;5.60;;;4.20;;
14358;SDS011;7263;49.418;11.064;2023-02-28T11:26:37;6.20;;;4.50;;
14358;SDS011;7263;49.418;11.064;2023-02-28T11:29:11;4.53;;;3.73;;
14358;SDS011;7263;49.418;11.064;2023-02-28T11:31:44;5.27;;;3.73;;
14358;SDS011;7263;49.418;11.064;2023-02-28T11:34:28;4.60;;;3.97;;
14358;SDS011;7263;49.418;11.064;2023-02-28T11:36:57;4.43;;;3.93;;
14358;SDS011;7263;49.418;11.064;2023-02-28T11:39:25;6.73;;;5.00;;
14358;SDS011;7263;49.418;11.064;2023-02-28T11:41:56;5.60;;;4.57;;
14358;SDS011;7263;49.418;11.064;2023-02-28T11:44:38;6.73;;;5.00;;
14358;SDS011;7263;49.418;11.064;2023-02-28T11:47:22;6.00;;;4.50;;
14358;SDS011;7263;49.418;11.064;2023-02-28T11:49:58;5.00;;;4.37;;
14358;SDS011;7263;49.418;11.064;2023-02-28T11:52:40;7.57;;;4.70;;
14358;SDS011;7263;49.418;11.064;2023-02-28T11:55:13;4.43;;;3.90;;
14358;SDS011;7263;49.418;11.064;2023-02-28T12:00:55;5.10;;;4.43;;
14358;SDS011;7263;49.418;11.064;2023-02-28T12:03:44;6.50;;;3.83;;
14358;SDS011;7263;49.418;11.064;2023-02-28T12:06:18;4.73;;;4.10;;
14358;SDS011;7263;49.418;11.064;2023-02-28T12:08:56;4.87;;;4.17;;
14358;SDS011;7263;49.418;11.064;2023-02-28T12:11:31;6.63;;;4.40;;
14358;SDS011;7263;49.418;11.064;2023-02-28T12:14:22;4.37;;;3.80;;
14358;SDS011;7263;49.418;11.064;2023-02-28T12:17:02;5.17;;;4.40;;
14358;SDS011;7263;49.418;11.064;2023-02-28T12:19:43;4.67;;;4.20;;
14358;SDS011;7263;49.418;11.064;2023-02-28T12:22:30;5.83;;;4.10;;
14358;SDS011;7263;49.418;11.064;2023-02-28T12:25:02;5.07;;;4.57;;
14358;SDS011;7263;49.418;11.064;2023-02-28T12:28:06;5.27;;;4.20;;
14358;SDS011;7263;49.418;11.064;2023-02-28T12:30:35;6.47;;;4.37;;
14358;SDS011;7263;49.418;11.064;2023-02-28T12:33:08;5.10;;;4.10;;
14358;SDS011;7263;49.418;11.064;2023-02-28T12:35:39;4.50;;;3.90;;
14358;SDS011;7263;49.418;11.064;2023-02-28T12:38:13;5.07;;;4.10;;
14358;SDS011;7263;49.418;11.064;2023-02-28T12:40:48;5.83;;;4.13;;
14358;SDS011;7263;49.418;11.064;2023-02-28T12:43:19;4.33;;;3.87;;
14358;SDS011;7263;49.418;11.064;2023-02-28T12:45:49;6.03;;;4.37;;
14358;SDS011;7263;49.418;11.064;2023-02-28T12:48:20;4.97;;;4.40;;
14358;SDS011;7263;49.418;11.064;2023-02-28T12:50:51;4.23;;;3.83;;
14358;SDS011;7263;49.418;11.064;2023-02-28T12:53:21;5.37;;;4.30;;
14358;SDS011;7263;49.418;11.064;2023-02-28T12:55:56;5.10;;;4.07;;
14358;SDS011;7263;49.418;11.064;2023-02-28T12:58:36;5.77;;;4.13;;
14358;SDS011;7263;49.418;11.064;2023-02-28T13:01:15;5.37;;;3.77;;
14358;SDS011;7263;49.418;11.064;2023-02-28T13:04:04;5.53;;;4.50;;
14358;SDS011;7263;49.418;11.064;2023-02-28T13:07:08;6.40;;;4.80;;
14358;SDS011;7263;49.418;11.064;2023-02-28T13:09:51;5.80;;;4.27;;
14358;SDS011;7263;49.418;11.064;2023-02-28T13:12:20;5.43;;;4.80;;
14358;SDS011;7263;49.418;11.064;2023-02-28T13:14:48;5.17;;;4.47;;
14358;SDS011;7263;49.418;11.064;2023-02-28T13:17:17;4.97;;;4.23;;
14358;SDS011;7263;49.418;11.064;2023-02-28T13:19:46;5.40;;;3.90;;
14358;SDS011;7263;49.418;11.064;2023-02-28T13:22:36;6.00;;;4.37;;
14358;SDS011;7263;49.418;11.064;2023-02-28T13:31:32;5.87;;;4.20;;
14358;SDS011;7263;49.418;11.064;2023-02-28T13:34:34;6.27;;;4.77;;
14358;SDS011;7263;49.418;11.064;2023-02-28T13:37:32;7.80;;;5.43;;
14358;SDS011;7263;49.418;11.064;2023-02-28T13:43:02;7.47;;;4.83;;
14358;SDS011;7263;49.418;11.064;2023-02-28T13:45:30;5.50;;;4.70;;
14358;SDS011;7263;49.418;11.064;2023-02-28T13:48:03;5.10;;;4.60;;
14358;SDS011;7263;49.418;11.064;2023-02-28T13:50:33;6.33;;;4.50;;
14358;SDS011;7263;49.418;11.064;2023-02-28T13:55:59;6.17;;;4.60;;
14358;SDS011;7263;49.418;11.064;2023-02-28T13:58:36;6.70;;;4.97;;
14358;SDS011;7263;49.418;11.064;2023-02-28T14:01:17;4.70;;;4.27;;
14358;SDS011;7263;49.418;11.064;2023-02-28T14:07:28;5.40;;;4.80;;
14358;SDS011;7263;49.418;11.064;2023-02-28T14:09:59;6.47;;;4.70;;
14358;SDS011;7263;49.418;11.064;2023-02-28T14:15:40;6.73;;;5.17;;
14358;SDS011;7263;49.418;11.064;2023-02-28T14:18:14;6.23;;;5.60;;
14358;SDS011;7263;49.418;11.064;2023-02-28T14:20:44;6.63;;;4.73;;
14358;SDS011;7263;49.418;11.064;2023-02-28T14:23:16;7.73;;;5.20;;
14358;SDS011;7263;49.418;11.064;2023-02-28T14:25:54;7.03;;;6.20;;
14358;SDS011;7263;49.418;11.064;2023-02-28T14:28:32;7.07;;;5.17;;
14358;SDS011;7263;49.418;11.064;2023-02-28T14:31:20;6.27;;;5.00;;
14358;SDS011;7263;49.418;11.064;2023-02-28T14:33:57;7.10;;;5.17;;
14358;SDS011;7263;49.418;11.064;2023-02-28T14:36:31;5.67;;;4.93;;
14358;SDS011;7263;49.418;11.064;2023-02-28T14:39:04;7.17;;;5.27;;
14358;SDS011;7263;49.418;11.064;2023-02-28T14:41:34;6.90;;;5.60;;
14358;SDS011;7263;49.418;11.064;2023-02-28T14:44:12;5.83;;;5.27;;
14358;SDS011;7263;49.418;11.064;2023-02-28T14:46:40;6.00;;;5.33;;
14358;SDS011;7263;49.418;11.064;2023-02-28T14:49:12;5.60;;;4.93;;
14358;SDS011;7263;49.418;11.064;2023-02-28T14:51:41;6.97;;;5.97;;
14358;SDS011;7263;49.418;11.064;2023-02-28T14:54:13;6.40;;;5.37;;
14358;SDS011;7263;49.418;11.064;2023-02-28T14:56:41;5.80;;;5.20;;
14358;SDS011;7263;49.418;11.064;2023-02-28T14:59:22;6.20;;;5.60;;
14358;SDS011;7263;49.418;11.064;2023-02-28T15:01:51;7.97;;;5.53;;
14358;SDS011;7263;49.418;11.064;2023-02-28T15:04:20;7.30;;;5.50;;
14358;SDS011;7263;49.418;11.064;2023-02-28T15:07:06;7.30;;;5.40;;
14358;SDS011;7263;49.418;11.064;2023-02-28T15:09:35;8.23;;;5.37;;
14358;SDS011;7263;49.418;11.064;2023-02-28T15:12:02;6.47;;;5.53;;
14358;SDS011;7263;49.418;11.064;2023-02-28T15:14:29;7.27;;;4.97;;
14358;SDS011;7263;49.418;11.064;2023-02-28T15:16:56;6.77;;;4.70;;
14358;SDS011;7263;49.418;11.064;2023-02-28T15:19:26;6.23;;;5.20;;
14358;SDS011;7263;49.418;11.064;2023-02-28T15:21:56;5.90;;;4.93;;
14358;SDS011;7263;49.418;11.064;2023-02-28T15:24:28;6.03;;;4.73;;
14358;SDS011;7263;49.418;11.064;2023-02-28T15:27:03;7.90;;;5.50;;
14358;SDS011;7263;49.418;11.064;2023-02-28T15:29:34;9.73;;;5.20;;
14358;SDS011;7263;49.418;11.064;2023-02-28T15:32:16;5.83;;;5.17;;
14358;SDS011;7263;49.418;11.064;2023-02-28T15:34:51;6.87;;;5.17;;
14358;SDS011;7263;49.418;11.064;2023-02-28T15:37:29;7.27;;;5.23;;
14358;SDS011;7263;49.418;11.064;2023-02-28T15:40:10;9.10;;;5.47;;